createdAt,value
2019-05-01T00:01:02.143Z,9.07
2019-05-01T00:03:48.214Z,9.01
2019-05-01T00:06:16.499Z,9.03
2019-05-01T00:08:42.819Z,9.11
2019-05-01T00:11:09.216Z,9.06
2019-05-01T00:13:35.406Z,8.89
2019-05-01T00:16:01.996Z,8.14
2019-05-01T00:18:28.339Z,8.05
2019-05-01T00:20:54.527Z,8.21
2019-05-01T00:23:20.779Z,8.32
2019-05-01T00:25:47.034Z,8.48
2019-05-01T00:28:13.751Z,8.41
2019-05-01T00:30:40.309Z,8.45
2019-05-01T00:33:06.556Z,8.59
2019-05-01T00:35:32.859Z,8.50
2019-05-01T00:37:59.226Z,8.47
2019-05-01T00:40:26.552Z,8.54
2019-05-01T00:42:52.794Z,8.58
2019-05-01T00:45:19.408Z,8.65
2019-05-01T00:47:45.541Z,8.52
2019-05-01T00:50:11.835Z,8.31
2019-05-01T00:52:37.960Z,8.14
2019-05-01T00:55:08.743Z,7.84
2019-05-01T00:57:36.866Z,7.86
2019-05-01T01:00:12.787Z,7.87
2019-05-01T01:02:40.995Z,8.02
2019-05-01T01:05:07.441Z,8.08
2019-05-01T01:07:33.827Z,8.14
2019-05-01T01:10:00.263Z,7.90
2019-05-01T01:12:26.450Z,7.98
2019-05-01T01:14:52.673Z,8.03
2019-05-01T01:17:18.990Z,7.98
2019-05-01T01:19:45.200Z,7.95
2019-05-01T01:22:11.307Z,7.75
2019-05-01T01:24:37.521Z,7.66
2019-05-01T01:27:03.722Z,7.68
2019-05-01T01:29:29.955Z,7.98
2019-05-01T01:31:56.241Z,7.94
2019-05-01T01:34:22.549Z,7.68
2019-05-01T01:36:48.876Z,7.63
2019-05-01T01:39:15.082Z,7.64
2019-05-01T01:41:41.537Z,7.66
2019-05-01T01:44:13.763Z,7.61
2019-05-01T01:46:42.460Z,7.72
2019-05-01T01:49:08.768Z,7.36
2019-05-01T01:51:35.190Z,7.18
2019-05-01T01:54:02.047Z,7.27
2019-05-01T01:56:28.360Z,7.31
2019-05-01T01:58:55.181Z,7.41
2019-05-01T02:01:24.669Z,7.51
2019-05-01T02:03:57.840Z,7.22
2019-05-01T02:06:24.179Z,6.81
2019-05-01T02:08:56.782Z,6.85
2019-05-01T02:11:18.897Z,6.99
2019-05-01T02:13:45.311Z,7.22
2019-05-01T02:16:11.477Z,7.26
2019-05-01T02:18:37.767Z,7.25
2019-05-01T02:21:04.096Z,7.38
2019-05-01T02:23:31.303Z,7.34
2019-05-01T02:25:57.604Z,7.44
2019-05-01T02:28:29.310Z,7.41
2019-05-01T02:31:27.249Z,7.33
2019-05-01T02:33:45.241Z,7.43
2019-05-01T02:36:13.993Z,7.16
2019-05-01T02:38:41.478Z,6.82
2019-05-01T02:41:10.922Z,6.85
2019-05-01T02:43:40.655Z,6.69
2019-05-01T02:46:10.270Z,6.80
2019-05-01T02:48:40.190Z,6.76
2019-05-01T02:51:07.364Z,6.95
2019-05-01T02:53:37.334Z,7.10
2019-05-01T02:56:13.111Z,7.24
2019-05-01T02:58:41.464Z,7.28
2019-05-01T03:01:07.775Z,7.17
2019-05-01T03:03:34.419Z,7.07
2019-05-01T03:06:01.125Z,6.99
2019-05-01T03:08:27.551Z,6.89
2019-05-01T03:10:53.918Z,6.95
2019-05-01T03:13:20.722Z,6.85
2019-05-01T03:15:47.236Z,6.84
2019-05-01T03:18:15.358Z,7.02
2019-05-01T03:20:53.699Z,6.98
2019-05-01T03:23:34.011Z,7.06
2019-05-01T03:26:00.443Z,7.14
2019-05-01T03:28:26.853Z,7.23
2019-05-01T03:30:53.611Z,7.08
2019-05-01T03:33:20.486Z,7.10
2019-05-01T03:35:47.003Z,6.98
2019-05-01T03:38:15.261Z,6.98
2019-05-01T03:40:41.615Z,7.03
2019-05-01T03:43:08.422Z,7.00
2019-05-01T03:45:35.122Z,7.10
2019-05-01T03:48:02.017Z,7.22
2019-05-01T03:50:28.342Z,7.24
2019-05-01T03:52:55.067Z,7.28
2019-05-01T03:55:21.291Z,7.28
2019-05-01T03:57:47.703Z,7.27
2019-05-01T04:00:31.302Z,7.08
2019-05-01T04:03:16.169Z,7.14
2019-05-01T04:05:42.984Z,7.15
2019-05-01T04:08:09.625Z,7.16
2019-05-01T04:10:36.289Z,7.26
2019-05-01T04:13:02.609Z,7.32
2019-05-01T04:15:28.947Z,7.27
2019-05-01T04:17:57.143Z,7.32
2019-05-01T04:20:23.639Z,7.24
2019-05-01T04:22:50.198Z,7.22
2019-05-01T04:25:16.715Z,7.13
2019-05-01T04:27:44.916Z,7.18
2019-05-01T04:30:13.214Z,7.00
2019-05-01T04:32:51.784Z,7.04
2019-05-01T04:35:19.746Z,6.98
2019-05-01T04:37:46.042Z,7.07
2019-05-01T04:40:12.387Z,7.22
2019-05-01T04:42:38.786Z,7.32
2019-05-01T04:45:05.101Z,7.15
2019-05-01T04:47:31.738Z,7.18
2019-05-01T04:49:58.943Z,7.32
2019-05-01T04:52:25.580Z,7.31
2019-05-01T04:54:52.200Z,7.15
2019-05-01T04:57:18.579Z,7.07
2019-05-01T04:59:45.129Z,7.22
2019-05-01T05:02:13.425Z,7.36
2019-05-01T05:04:40.627Z,7.47
2019-05-01T05:07:07.067Z,7.55
2019-05-01T05:09:46.627Z,7.64
2019-05-01T05:12:16.054Z,7.68
2019-05-01T05:14:44.894Z,7.52
2019-05-01T05:17:13.101Z,7.58
2019-05-01T05:19:39.388Z,7.69
2019-05-01T05:22:06.142Z,7.58
2019-05-01T05:24:32.474Z,7.59
2019-05-01T05:27:00.052Z,7.61
2019-05-01T05:29:27.423Z,7.57
2019-05-01T05:31:56.398Z,7.62
2019-05-01T05:34:25.324Z,7.70
2019-05-01T05:36:56.190Z,7.71
2019-05-01T05:39:26.330Z,7.65
2019-05-01T05:41:54.408Z,7.45
2019-05-01T05:44:21.641Z,7.40
2019-05-01T05:46:48.075Z,7.34
2019-05-01T05:49:14.416Z,7.41
2019-05-01T05:51:59.936Z,7.50
2019-05-01T05:54:30.719Z,7.59
2019-05-01T05:57:01.562Z,7.69
2019-05-01T05:59:38.427Z,7.73
2019-05-01T06:02:27.066Z,7.75
2019-05-01T06:05:14.394Z,7.63
2019-05-01T06:07:49.380Z,7.64
2019-05-01T06:10:23.259Z,7.70
2019-05-01T06:13:08.867Z,7.79
2019-05-01T06:15:41.141Z,7.76
2019-05-01T06:18:09.803Z,7.82
2019-05-01T06:20:40.819Z,7.87
2019-05-01T06:23:15.791Z,7.98
2019-05-01T06:25:44.154Z,7.85
2019-05-01T06:28:11.218Z,7.80
2019-05-01T06:30:37.471Z,7.83
2019-05-01T06:33:04.217Z,7.85
2019-05-01T06:35:33.997Z,7.90
2019-05-01T06:38:03.765Z,7.92
2019-05-01T06:40:40.549Z,7.82
2019-05-01T06:43:11.962Z,7.85
2019-05-01T06:45:40.886Z,7.74
2019-05-01T06:48:09.231Z,7.71
2019-05-01T06:50:41.585Z,7.81
2019-05-01T06:53:06.683Z,7.90
2019-05-01T06:55:33.795Z,7.98
2019-05-01T06:58:00.110Z,8.17
2019-05-01T07:00:26.542Z,8.26
2019-05-01T07:02:53.957Z,8.10
2019-05-01T07:05:21.808Z,7.92
2019-05-01T07:07:53.256Z,7.92
2019-05-01T07:10:29.498Z,7.87
2019-05-01T07:12:45.657Z,7.98
2019-05-01T07:15:12.652Z,8.10
2019-05-01T07:17:38.836Z,8.21
2019-05-01T07:20:18.171Z,7.77
2019-05-01T07:22:45.095Z,7.68
2019-05-01T07:25:11.431Z,7.47
2019-05-01T07:27:37.756Z,7.50
2019-05-01T07:30:11.582Z,7.78
2019-05-01T07:32:41.166Z,7.75
2019-05-01T07:35:07.445Z,7.29
2019-05-01T07:37:33.759Z,7.20
2019-05-01T07:40:00.176Z,7.22
2019-05-01T07:42:31.109Z,7.42
2019-05-01T07:45:03.944Z,7.68
2019-05-01T07:47:32.947Z,7.91
2019-05-01T07:50:03.081Z,7.99
2019-05-01T07:52:29.938Z,7.97
2019-05-01T07:54:56.480Z,8.02
2019-05-01T07:57:23.319Z,8.29
2019-05-01T07:59:49.900Z,8.43
2019-05-01T08:02:16.183Z,8.60
2019-05-01T08:04:42.625Z,8.63
2019-05-01T08:07:08.835Z,8.79
2019-05-01T08:09:35.215Z,8.90
2019-05-01T08:12:04.550Z,8.50
2019-05-01T08:14:30.766Z,8.61
2019-05-01T08:16:56.963Z,8.45
2019-05-01T08:19:34.737Z,8.05
2019-05-01T08:22:04.132Z,8.25
2019-05-01T08:24:30.546Z,8.10
2019-05-01T08:26:56.678Z,8.28
2019-05-01T08:29:41.867Z,8.40
2019-05-01T08:32:26.463Z,8.45
2019-05-01T08:34:55.757Z,8.46
2019-05-01T08:37:23.726Z,8.57
2019-05-01T08:39:50.659Z,8.31
2019-05-01T08:42:16.934Z,8.55
2019-05-01T08:45:04.925Z,8.52
2019-05-01T08:47:35.944Z,8.62
2019-05-01T08:50:06.876Z,8.60
2019-05-01T08:52:33.181Z,8.61
2019-05-01T08:54:59.469Z,8.90
2019-05-01T08:57:29.209Z,9.00
2019-05-01T08:59:55.782Z,8.79
2019-05-01T09:02:21.923Z,8.66
2019-05-01T09:04:48.260Z,9.00
2019-05-01T09:07:18.686Z,9.22
2019-05-01T09:09:45.499Z,8.92
2019-05-01T09:12:11.918Z,8.74
2019-05-01T09:14:39.001Z,8.78
2019-05-01T09:17:05.335Z,8.74
2019-05-01T09:19:31.532Z,8.86
2019-05-01T09:21:57.823Z,9.00
2019-05-01T09:24:28.020Z,8.86
2019-05-01T09:26:59.918Z,8.62
2019-05-01T09:29:28.248Z,8.59
2019-05-01T09:31:54.684Z,8.71
2019-05-01T09:34:21.136Z,9.03
2019-05-01T09:36:48.657Z,9.19
2019-05-01T09:39:16.631Z,9.42
2019-05-01T09:41:46.866Z,9.59
2019-05-01T09:44:12.148Z,9.90
2019-05-01T09:46:39.078Z,10.14
2019-05-01T09:49:05.627Z,9.95
2019-05-01T09:51:52.287Z,9.84
2019-05-01T09:54:23.947Z,9.79
2019-05-01T09:56:50.398Z,10.00
2019-05-01T09:59:17.525Z,10.21
2019-05-01T10:01:45.030Z,10.16
2019-05-01T10:04:11.379Z,10.25
2019-05-01T10:06:37.677Z,10.45
2019-05-01T10:09:06.403Z,10.70
2019-05-01T10:11:35.942Z,10.68
2019-05-01T10:14:04.245Z,10.70
2019-05-01T10:16:30.507Z,10.45
2019-05-01T10:18:56.825Z,10.48
2019-05-01T10:21:27.294Z,10.78
2019-05-01T10:23:51.692Z,11.11
2019-05-01T10:26:24.039Z,10.91
2019-05-01T10:29:07.943Z,10.29
2019-05-01T10:31:51.292Z,10.52
2019-05-01T10:34:31.319Z,11.08
2019-05-01T10:36:57.440Z,11.24
2019-05-01T10:39:23.666Z,11.33
2019-05-01T10:41:49.940Z,11.34
2019-05-01T10:44:16.181Z,11.39
2019-05-01T10:46:42.390Z,11.29
2019-05-01T10:49:08.657Z,11.26
2019-05-01T10:51:34.988Z,11.77
2019-05-01T10:54:01.413Z,11.80
2019-05-01T10:56:27.648Z,11.80
2019-05-01T10:58:54.103Z,11.38
2019-05-01T11:01:22.323Z,11.42
2019-05-01T11:03:48.582Z,11.68
2019-05-01T11:06:14.888Z,12.09
2019-05-01T11:08:41.061Z,12.39
2019-05-01T11:11:07.189Z,12.47
2019-05-01T11:13:33.599Z,12.81
2019-05-01T11:16:01.149Z,13.31
2019-05-01T11:18:27.515Z,13.32
2019-05-01T11:20:53.752Z,12.61
2019-05-01T11:23:20.101Z,12.94
2019-05-01T11:25:46.433Z,12.24
2019-05-01T11:28:12.772Z,12.64
2019-05-01T11:30:39.204Z,13.05
2019-05-01T11:33:13.336Z,12.82
2019-05-01T11:35:53.681Z,12.74
2019-05-01T11:38:40.134Z,12.73
2019-05-01T11:41:23.454Z,13.33
2019-05-01T11:43:49.830Z,13.55
2019-05-01T11:46:16.109Z,14.32
2019-05-01T11:48:44.493Z,15.00
2019-05-01T11:51:10.509Z,14.96
2019-05-01T11:53:36.858Z,13.70
2019-05-01T11:56:03.217Z,14.01
2019-05-01T11:58:29.513Z,14.54
2019-05-01T12:00:57.764Z,15.08
2019-05-01T12:03:24.052Z,14.73
2019-05-01T12:05:50.152Z,15.13
2019-05-01T12:08:16.287Z,15.77
2019-05-01T12:10:43.373Z,15.38
2019-05-01T12:13:09.569Z,16.02
2019-05-01T12:15:35.701Z,16.89
2019-05-01T12:18:01.844Z,16.24
2019-05-01T12:20:28.188Z,16.78
2019-05-01T12:22:54.414Z,17.51
2019-05-01T12:25:20.625Z,15.85
2019-05-01T12:27:46.796Z,16.64
2019-05-01T12:30:15.303Z,17.08
2019-05-01T12:32:41.651Z,18.10
2019-05-01T12:35:08.063Z,17.79
2019-05-01T12:37:38.814Z,17.18
2019-05-01T12:40:08.054Z,17.72
2019-05-01T12:42:34.480Z,16.83
2019-05-01T12:45:00.681Z,17.10
2019-05-01T12:47:31.717Z,17.40
2019-05-01T12:49:57.930Z,18.64
2019-05-01T12:52:42.640Z,18.19
2019-05-01T12:55:13.913Z,17.04
2019-05-01T12:57:40.472Z,18.23
2019-05-01T13:00:09.488Z,18.37
2019-05-01T13:02:35.791Z,18.62
2019-05-01T13:05:05.978Z,17.04
2019-05-01T13:07:33.053Z,16.22
2019-05-01T13:09:59.465Z,17.13
2019-05-01T13:12:25.811Z,17.11
2019-05-01T13:14:51.928Z,18.51
2019-05-01T13:17:18.173Z,17.55
2019-05-01T13:19:44.405Z,17.53
2019-05-01T13:22:10.915Z,16.93
2019-05-01T13:24:40.059Z,17.74
2019-05-01T13:27:10.827Z,18.15
2019-05-01T13:29:41.848Z,17.94
2019-05-01T13:32:12.807Z,17.36
2019-05-01T13:34:39.002Z,16.24
2019-05-01T13:37:05.483Z,16.55
2019-05-01T13:39:31.698Z,16.97
2019-05-01T13:41:57.983Z,17.85
2019-05-01T13:44:24.199Z,17.54
2019-05-01T13:46:50.710Z,17.62
2019-05-01T13:49:17.076Z,17.42
2019-05-01T13:51:43.320Z,16.47
2019-05-01T13:54:10.018Z,15.90
2019-05-01T13:56:36.321Z,16.33
2019-05-01T13:59:03.545Z,16.74
2019-05-01T14:01:29.902Z,17.25
2019-05-01T14:03:56.142Z,16.60
2019-05-01T14:06:22.404Z,16.50
2019-05-01T14:08:48.646Z,16.60
2019-05-01T14:11:15.047Z,16.84
2019-05-01T14:13:41.523Z,16.47
2019-05-01T14:16:07.762Z,16.71
2019-05-01T14:18:34.492Z,17.02
2019-05-01T14:21:14.676Z,16.55
2019-05-01T14:23:57.770Z,15.87
2019-05-01T14:26:24.120Z,16.17
2019-05-01T14:28:50.348Z,16.21
2019-05-01T14:31:16.679Z,16.39
2019-05-01T14:33:42.785Z,16.65
2019-05-01T14:36:09.094Z,16.44
2019-05-01T14:38:35.466Z,16.63
2019-05-01T14:41:01.655Z,17.00
2019-05-01T14:43:29.799Z,17.20
2019-05-01T14:45:56.151Z,16.99
2019-05-01T14:48:22.478Z,16.74
2019-05-01T14:50:48.730Z,16.84
2019-05-01T14:53:15.024Z,16.85
2019-05-01T14:55:41.456Z,16.80
2019-05-01T14:58:07.948Z,16.69
2019-05-01T15:00:34.282Z,16.89
2019-05-01T15:03:00.475Z,17.01
2019-05-01T15:05:27.034Z,16.72
2019-05-01T15:07:53.265Z,17.00
2019-05-01T15:10:19.789Z,17.12
2019-05-01T15:12:47.877Z,17.09
2019-05-01T15:15:18.722Z,16.65
2019-05-01T15:17:49.714Z,16.58
2019-05-01T15:20:16.171Z,16.69
2019-05-01T15:22:42.496Z,16.82
2019-05-01T15:25:08.950Z,16.87
2019-05-01T15:27:35.301Z,16.90
2019-05-01T15:30:05.071Z,16.84
2019-05-01T15:32:31.513Z,16.60
2019-05-01T15:34:57.725Z,16.71
2019-05-01T15:37:23.959Z,16.55
2019-05-01T15:39:52.067Z,16.66
2019-05-01T15:42:20.151Z,16.67
2019-05-01T15:44:47.817Z,16.56
2019-05-01T15:47:14.610Z,16.69
2019-05-01T15:49:41.304Z,16.96
2019-05-01T15:52:07.506Z,17.22
2019-05-01T15:54:33.792Z,17.14
2019-05-01T15:57:00.414Z,17.25
2019-05-01T15:59:26.527Z,17.29
2019-05-01T16:01:52.838Z,17.37
2019-05-01T16:04:19.235Z,17.19
2019-05-01T16:06:45.589Z,16.98
2019-05-01T16:09:12.045Z,16.64
2019-05-01T16:11:56.803Z,16.74
2019-05-01T16:14:26.345Z,16.82
2019-05-01T16:16:52.941Z,16.71
2019-05-01T16:19:19.259Z,16.58
2019-05-01T16:21:45.933Z,16.61
2019-05-01T16:24:12.144Z,16.66
2019-05-01T16:26:38.273Z,16.75
2019-05-01T16:29:04.459Z,16.76
2019-05-01T16:31:30.593Z,16.78
2019-05-01T16:33:56.797Z,16.63
2019-05-01T16:36:23.245Z,16.40
2019-05-01T16:38:55.533Z,16.46
2019-05-01T16:41:21.805Z,16.58
2019-05-01T16:43:48.095Z,16.44
2019-05-01T16:46:14.454Z,16.48
2019-05-01T16:48:40.681Z,16.44
2019-05-01T16:51:06.889Z,16.33
2019-05-01T16:53:33.246Z,16.51
2019-05-01T16:55:59.430Z,16.38
2019-05-01T16:58:25.887Z,16.15
2019-05-01T17:00:59.347Z,16.35
2019-05-01T17:03:27.698Z,16.55
2019-05-01T17:05:58.485Z,16.66
2019-05-01T17:08:36.038Z,16.68
2019-05-01T17:10:54.896Z,16.23
2019-05-01T17:13:21.014Z,15.88
2019-05-01T17:15:50.223Z,15.96
2019-05-01T17:18:16.770Z,16.02
2019-05-01T17:20:42.994Z,16.16
2019-05-01T17:23:09.432Z,16.29
2019-05-01T17:25:35.645Z,16.37
2019-05-01T17:28:02.942Z,16.21
2019-05-01T17:30:38.969Z,16.21
2019-05-01T17:33:06.496Z,16.15
2019-05-01T17:35:36.888Z,16.18
2019-05-01T17:38:00.928Z,16.17
2019-05-01T17:40:27.406Z,16.17
2019-05-01T17:42:53.527Z,16.15
2019-05-01T17:45:19.997Z,16.02
2019-05-01T17:47:46.219Z,15.89
2019-05-01T17:50:16.408Z,15.93
2019-05-01T17:52:40.928Z,15.80
2019-05-01T17:55:07.462Z,15.67
2019-05-01T17:57:34.031Z,15.61
2019-05-01T18:00:02.132Z,15.63
2019-05-01T18:02:30.539Z,15.57
2019-05-01T18:05:15.222Z,15.50
2019-05-01T18:07:41.504Z,15.34
2019-05-01T18:10:08.135Z,15.27
2019-05-01T18:12:34.564Z,15.31
2019-05-01T18:15:01.124Z,15.20
2019-05-01T18:17:27.341Z,15.20
2019-05-01T18:19:53.703Z,15.14
2019-05-01T18:22:38.827Z,14.99
2019-05-01T18:25:10.272Z,14.85
2019-05-01T18:27:55.682Z,14.70
2019-05-01T18:30:24.083Z,14.56
2019-05-01T18:32:52.456Z,14.45
2019-05-01T18:35:18.532Z,14.29
2019-05-01T18:37:49.654Z,14.21
2019-05-01T18:40:20.731Z,14.19
2019-05-01T18:42:47.019Z,14.02
2019-05-01T18:45:33.552Z,13.84
2019-05-01T18:47:59.975Z,13.85
2019-05-01T18:50:26.156Z,13.59
2019-05-01T18:52:52.279Z,13.43
2019-05-01T18:55:18.571Z,13.46
2019-05-01T18:57:44.958Z,13.35
2019-05-01T19:00:11.443Z,13.36
2019-05-01T19:02:39.060Z,13.44
2019-05-01T19:05:08.752Z,13.29
2019-05-01T19:07:33.918Z,13.06
2019-05-01T19:10:00.376Z,12.95
2019-05-01T19:12:26.744Z,12.84
2019-05-01T19:14:52.976Z,12.65
2019-05-01T19:17:19.326Z,12.56
2019-05-01T19:19:45.552Z,12.42
2019-05-01T19:22:11.800Z,12.18
2019-05-01T19:24:40.073Z,12.18
2019-05-01T19:27:06.660Z,12.14
2019-05-01T19:29:33.879Z,11.95
2019-05-01T19:32:00.094Z,12.03
2019-05-01T19:34:26.436Z,12.03
2019-05-01T19:36:53.176Z,11.98
2019-05-01T19:39:19.661Z,11.96
2019-05-01T19:41:49.257Z,12.08
2019-05-01T19:44:18.722Z,12.02
2019-05-01T19:46:42.343Z,11.90
2019-05-01T19:49:08.801Z,11.84
2019-05-01T19:51:35.297Z,11.75
2019-05-01T19:54:01.623Z,11.70
2019-05-01T19:56:28.952Z,11.29
2019-05-01T19:58:55.339Z,11.29
2019-05-01T20:01:21.741Z,11.12
2019-05-01T20:03:48.083Z,10.95
2019-05-01T20:06:14.526Z,10.94
2019-05-01T20:08:40.878Z,10.82
2019-05-01T20:11:09.511Z,10.63
2019-05-01T20:13:35.539Z,10.58
2019-05-01T20:16:01.910Z,10.71
2019-05-01T20:18:29.261Z,10.52
2019-05-01T20:20:55.687Z,10.35
2019-05-01T20:23:26.214Z,10.25
2019-05-01T20:25:51.079Z,10.24
2019-05-01T20:28:20.489Z,10.11
2019-05-01T20:30:49.559Z,9.98
2019-05-01T20:33:16.117Z,9.88
2019-05-01T20:35:42.472Z,9.83
2019-05-01T20:38:08.799Z,9.77
2019-05-01T20:40:35.138Z,9.81
2019-05-01T20:43:05.938Z,9.63
2019-05-01T20:45:29.587Z,9.65
2019-05-01T20:47:55.890Z,9.52
2019-05-01T20:50:22.146Z,9.45
2019-05-01T20:52:49.512Z,9.62
2019-05-01T20:55:15.831Z,9.83
2019-05-01T20:57:47.174Z,9.92
2019-05-01T21:00:16.954Z,9.78
2019-05-01T21:02:44.656Z,9.84
2019-05-01T21:05:30.714Z,9.99
2019-05-01T21:08:04.514Z,9.83
2019-05-01T21:10:34.408Z,9.86
2019-05-01T21:13:00.820Z,9.84
2019-05-01T21:15:27.056Z,9.64
2019-05-01T21:17:53.345Z,9.55
2019-05-01T21:20:19.674Z,9.46
2019-05-01T21:22:45.817Z,9.36
2019-05-01T21:25:13.803Z,9.14
2019-05-01T21:27:40.219Z,8.94
2019-05-01T21:30:06.637Z,8.90
2019-05-01T21:32:33.953Z,9.04
2019-05-01T21:35:00.229Z,9.20
2019-05-01T21:37:26.346Z,9.29
2019-05-01T21:39:53.793Z,9.29
2019-05-01T21:42:20.059Z,9.19
2019-05-01T21:44:46.277Z,8.80
2019-05-01T21:47:13.921Z,8.49
2019-05-01T21:49:42.823Z,8.30
2019-05-01T21:52:08.917Z,8.22
2019-05-01T21:54:35.054Z,8.21
2019-05-01T21:57:01.283Z,8.27
2019-05-01T21:59:27.684Z,8.38
2019-05-01T22:01:53.879Z,8.24
2019-05-01T22:04:20.242Z,8.08
2019-05-01T22:06:51.374Z,8.04
2019-05-01T22:09:16.658Z,8.16
2019-05-01T22:11:43.337Z,8.27
2019-05-01T22:14:11.499Z,8.40
2019-05-01T22:16:37.959Z,8.41
2019-05-01T22:19:11.690Z,8.28
2019-05-01T22:21:40.919Z,8.30
2019-05-01T22:24:20.955Z,8.26
2019-05-01T22:26:55.023Z,8.19
2019-05-01T22:29:27.316Z,8.26
2019-05-01T22:31:58.983Z,8.38
2019-05-01T22:34:32.747Z,8.41
2019-05-01T22:36:59.063Z,8.56
2019-05-01T22:39:28.880Z,8.38
2019-05-01T22:41:55.168Z,8.34
2019-05-01T22:44:22.695Z,8.50
2019-05-01T22:46:48.986Z,8.56
2019-05-01T22:49:15.210Z,8.61
2019-05-01T22:51:41.525Z,8.57
2019-05-01T22:54:07.811Z,8.54
2019-05-01T22:56:34.059Z,8.56
2019-05-01T22:59:00.256Z,8.44
2019-05-01T23:01:26.882Z,8.44
2019-05-01T23:03:55.093Z,8.43
2019-05-01T23:06:21.542Z,8.33
2019-05-01T23:08:47.741Z,8.35
2019-05-01T23:11:20.235Z,8.38
2019-05-01T23:13:42.989Z,8.34
2019-05-01T23:16:09.398Z,8.40
2019-05-01T23:18:35.703Z,8.37
2019-05-01T23:21:02.498Z,8.27
2019-05-01T23:23:28.639Z,8.18
2019-05-01T23:25:54.724Z,8.34
2019-05-01T23:28:21.044Z,8.33
2019-05-01T23:30:47.249Z,8.29
2019-05-01T23:33:13.443Z,8.24
2019-05-01T23:35:39.547Z,8.35
2019-05-01T23:38:05.767Z,8.38
2019-05-01T23:40:32.076Z,8.24
2019-05-01T23:42:58.283Z,8.11
2019-05-01T23:45:24.592Z,8.01
2019-05-01T23:47:50.792Z,7.87
2019-05-01T23:50:17.123Z,7.76
2019-05-01T23:52:43.323Z,7.62
2019-05-01T23:55:10.051Z,7.57
2019-05-01T23:57:36.170Z,7.53
